sensor_id;sensor_type;location;lat;lon;timestamp;temperature;humidity
46730;DHT22;32476;50.002;11.854;2023-07-20T00:01:28;14.00;99.90
46730;DHT22;32476;50.002;11.854;2023-07-20T00:03:54;14.00;99.90
46730;DHT22;32476;50.002;11.854;2023-07-20T00:06:25;14.00;99.90
46730;DHT22;32476;50.002;11.854;2023-07-20T00:08:56;13.90;99.90
46730;DHT22;32476;50.002;11.854;2023-07-20T00:11:26;13.90;99.90
46730;DHT22;32476;50.002;11.854;2023-07-20T00:13:53;13.90;99.90
46730;DHT22;32476;50.002;11.854;2023-07-20T00:16:19;13.80;99.90
46730;DHT22;32476;50.002;11.854;2023-07-20T00:18:46;13.80;99.90
46730;DHT22;32476;50.002;11.854;2023-07-20T00:21:12;13.80;99.90
46730;DHT22;32476;50.002;11.854;2023-07-20T00:23:38;13.80;99.90
46730;DHT22;32476;50.002;11.854;2023-07-20T00:26:13;13.90;99.90
46730;DHT22;32476;50.002;11.854;2023-07-20T00:28:39;14.10;99.90
46730;DHT22;32476;50.002;11.854;2023-07-20T00:31:04;14.20;99.90
46730;DHT22;32476;50.002;11.854;2023-07-20T00:33:32;14.30;99.90
46730;DHT22;32476;50.002;11.854;2023-07-20T00:35:58;14.40;99.90
46730;DHT22;32476;50.002;11.854;2023-07-20T00:38:24;14.40;99.90
46730;DHT22;32476;50.002;11.854;2023-07-20T00:40:51;14.40;99.90
46730;DHT22;32476;50.002;11.854;2023-07-20T00:43:17;14.40;99.90
46730;DHT22;32476;50.002;11.854;2023-07-20T00:45:44;14.40;99.90
46730;DHT22;32476;50.002;11.854;2023-07-20T00:48:13;14.40;99.90
46730;DHT22;32476;50.002;11.854;2023-07-20T00:50:40;14.40;99.90
46730;DHT22;32476;50.002;11.854;2023-07-20T00:53:07;14.40;99.90
46730;DHT22;32476;50.002;11.854;2023-07-20T00:55:35;14.30;99.90
46730;DHT22;32476;50.002;11.854;2023-07-20T00:58:00;14.30;99.90
46730;DHT22;32476;50.002;11.854;2023-07-20T01:00:27;14.30;99.90
46730;DHT22;32476;50.002;11.854;2023-07-20T01:02:54;14.30;99.90
46730;DHT22;32476;50.002;11.854;2023-07-20T01:05:21;14.30;99.90
46730;DHT22;32476;50.002;11.854;2023-07-20T01:08:15;14.30;99.90
46730;DHT22;32476;50.002;11.854;2023-07-20T01:10:57;14.20;99.90
46730;DHT22;32476;50.002;11.854;2023-07-20T01:13:28;14.20;99.90
46730;DHT22;32476;50.002;11.854;2023-07-20T01:16:01;14.20;99.90
46730;DHT22;32476;50.002;11.854;2023-07-20T01:18:28;14.20;99.90
46730;DHT22;32476;50.002;11.854;2023-07-20T01:20:59;14.20;99.90
46730;DHT22;32476;50.002;11.854;2023-07-20T01:33:12;14.10;99.90
46730;DHT22;32476;50.002;11.854;2023-07-20T01:35:41;14.00;99.90
46730;DHT22;32476;50.002;11.854;2023-07-20T01:38:11;14.00;99.90
46730;DHT22;32476;50.002;11.854;2023-07-20T01:40:38;13.90;99.90
46730;DHT22;32476;50.002;11.854;2023-07-20T01:43:07;13.90;99.90
46730;DHT22;32476;50.002;11.854;2023-07-20T01:45:33;13.80;99.90
46730;DHT22;32476;50.002;11.854;2023-07-20T01:47:59;13.80;99.90
46730;DHT22;32476;50.002;11.854;2023-07-20T01:50:26;13.80;99.90
46730;DHT22;32476;50.002;11.854;2023-07-20T01:52:53;13.80;99.90
46730;DHT22;32476;50.002;11.854;2023-07-20T01:55:18;13.70;99.90
46730;DHT22;32476;50.002;11.854;2023-07-20T01:57:46;13.70;99.90
46730;DHT22;32476;50.002;11.854;2023-07-20T02:00:12;13.60;99.90
46730;DHT22;32476;50.002;11.854;2023-07-20T02:02:39;13.60;99.90
46730;DHT22;32476;50.002;11.854;2023-07-20T02:05:06;13.60;99.90
46730;DHT22;32476;50.002;11.854;2023-07-20T02:07:33;13.60;99.90
46730;DHT22;32476;50.002;11.854;2023-07-20T02:09:59;13.50;99.90
46730;DHT22;32476;50.002;11.854;2023-07-20T02:12:26;13.40;99.90
46730;DHT22;32476;50.002;11.854;2023-07-20T02:14:52;13.40;99.90
46730;DHT22;32476;50.002;11.854;2023-07-20T02:17:18;13.30;99.90
46730;DHT22;32476;50.002;11.854;2023-07-20T02:19:46;13.20;99.90
46730;DHT22;32476;50.002;11.854;2023-07-20T02:22:15;13.20;99.90
46730;DHT22;32476;50.002;11.854;2023-07-20T02:24:42;13.10;99.90
46730;DHT22;32476;50.002;11.854;2023-07-20T02:27:09;13.10;99.90
46730;DHT22;32476;50.002;11.854;2023-07-20T02:29:35;13.10;99.90
46730;DHT22;32476;50.002;11.854;2023-07-20T02:32:02;13.00;99.90
46730;DHT22;32476;50.002;11.854;2023-07-20T02:34:29;12.90;99.90
46730;DHT22;32476;50.002;11.854;2023-07-20T02:36:55;12.90;99.90
46730;DHT22;32476;50.002;11.854;2023-07-20T02:39:29;12.80;99.90
46730;DHT22;32476;50.002;11.854;2023-07-20T02:41:57;12.80;99.90
46730;DHT22;32476;50.002;11.854;2023-07-20T02:44:23;12.70;99.90
46730;DHT22;32476;50.002;11.854;2023-07-20T02:46:49;12.70;99.90
46730;DHT22;32476;50.002;11.854;2023-07-20T02:49:16;12.70;99.90
46730;DHT22;32476;50.002;11.854;2023-07-20T02:51:42;12.60;99.90
46730;DHT22;32476;50.002;11.854;2023-07-20T02:54:08;12.50;99.90
46730;DHT22;32476;50.002;11.854;2023-07-20T02:56:36;12.50;99.90
46730;DHT22;32476;50.002;11.854;2023-07-20T02:59:02;12.50;99.90
46730;DHT22;32476;50.002;11.854;2023-07-20T03:01:28;12.50;99.90
46730;DHT22;32476;50.002;11.854;2023-07-20T03:03:56;12.40;99.90
46730;DHT22;32476;50.002;11.854;2023-07-20T03:06:22;12.40;99.90
46730;DHT22;32476;50.002;11.854;2023-07-20T03:08:48;12.30;99.90
46730;DHT22;32476;50.002;11.854;2023-07-20T03:11:19;12.30;99.90
46730;DHT22;32476;50.002;11.854;2023-07-20T03:13:46;12.30;99.90
46730;DHT22;32476;50.002;11.854;2023-07-20T03:16:14;12.30;99.90
46730;DHT22;32476;50.002;11.854;2023-07-20T03:18:45;12.20;99.90
46730;DHT22;32476;50.002;11.854;2023-07-20T03:21:12;12.20;99.90
46730;DHT22;32476;50.002;11.854;2023-07-20T03:23:39;12.20;99.90
46730;DHT22;32476;50.002;11.854;2023-07-20T03:26:07;12.20;99.90
46730;DHT22;32476;50.002;11.854;2023-07-20T03:28:35;12.20;99.90
46730;DHT22;32476;50.002;11.854;2023-07-20T03:31:01;12.10;99.90
46730;DHT22;32476;50.002;11.854;2023-07-20T03:33:29;12.10;99.90
46730;DHT22;32476;50.002;11.854;2023-07-20T03:35:56;12.10;99.90
46730;DHT22;32476;50.002;11.854;2023-07-20T03:38:23;12.10;99.90
46730;DHT22;32476;50.002;11.854;2023-07-20T03:40:52;12.20;99.90
46730;DHT22;32476;50.002;11.854;2023-07-20T03:43:19;12.30;99.90
46730;DHT22;32476;50.002;11.854;2023-07-20T03:45:46;12.50;99.90
46730;DHT22;32476;50.002;11.854;2023-07-20T03:48:15;12.60;99.90
46730;DHT22;32476;50.002;11.854;2023-07-20T03:50:47;12.80;99.90
46730;DHT22;32476;50.002;11.854;2023-07-20T03:53:17;13.00;99.90
46730;DHT22;32476;50.002;11.854;2023-07-20T03:55:48;13.00;99.90
46730;DHT22;32476;50.002;11.854;2023-07-20T03:58:16;13.10;99.90
46730;DHT22;32476;50.002;11.854;2023-07-20T04:00:47;13.10;99.90
46730;DHT22;32476;50.002;11.854;2023-07-20T04:03:14;13.20;99.90
46730;DHT22;32476;50.002;11.854;2023-07-20T04:05:42;13.30;99.90
46730;DHT22;32476;50.002;11.854;2023-07-20T04:08:10;13.40;99.90
46730;DHT22;32476;50.002;11.854;2023-07-20T04:10:37;13.40;99.90
46730;DHT22;32476;50.002;11.854;2023-07-20T04:13:05;13.40;99.90
46730;DHT22;32476;50.002;11.854;2023-07-20T04:15:31;13.40;99.90
46730;DHT22;32476;50.002;11.854;2023-07-20T04:17:57;13.40;99.90
46730;DHT22;32476;50.002;11.854;2023-07-20T04:20:24;13.40;99.90
46730;DHT22;32476;50.002;11.854;2023-07-20T04:22:50;13.40;99.90
46730;DHT22;32476;50.002;11.854;2023-07-20T04:25:18;13.50;99.90
46730;DHT22;32476;50.002;11.854;2023-07-20T04:27:45;13.60;99.90
46730;DHT22;32476;50.002;11.854;2023-07-20T04:30:12;13.70;99.90
46730;DHT22;32476;50.002;11.854;2023-07-20T04:32:38;13.80;99.90
46730;DHT22;32476;50.002;11.854;2023-07-20T04:38:11;13.90;99.90
46730;DHT22;32476;50.002;11.854;2023-07-20T04:40:38;14.10;99.90
46730;DHT22;32476;50.002;11.854;2023-07-20T04:43:04;14.10;99.90
46730;DHT22;32476;50.002;11.854;2023-07-20T04:45:31;14.20;99.90
46730;DHT22;32476;50.002;11.854;2023-07-20T04:47:58;14.30;99.90
46730;DHT22;32476;50.002;11.854;2023-07-20T04:50:24;14.30;99.90
46730;DHT22;32476;50.002;11.854;2023-07-20T04:52:51;14.30;99.90
46730;DHT22;32476;50.002;11.854;2023-07-20T04:55:19;14.40;99.90
46730;DHT22;32476;50.002;11.854;2023-07-20T04:57:45;14.40;99.90
46730;DHT22;32476;50.002;11.854;2023-07-20T05:00:12;14.40;99.90
46730;DHT22;32476;50.002;11.854;2023-07-20T05:02:41;14.40;99.90
46730;DHT22;32476;50.002;11.854;2023-07-20T05:05:07;14.30;99.90
46730;DHT22;32476;50.002;11.854;2023-07-20T05:07:34;14.30;99.90
46730;DHT22;32476;50.002;11.854;2023-07-20T05:10:01;14.40;99.90
46730;DHT22;32476;50.002;11.854;2023-07-20T05:12:27;14.40;99.90
46730;DHT22;32476;50.002;11.854;2023-07-20T05:14:53;14.50;99.90
46730;DHT22;32476;50.002;11.854;2023-07-20T05:17:20;14.50;99.90
46730;DHT22;32476;50.002;11.854;2023-07-20T05:19:46;14.50;99.90
46730;DHT22;32476;50.002;11.854;2023-07-20T05:22:13;14.60;99.90
46730;DHT22;32476;50.002;11.854;2023-07-20T05:24:41;14.70;99.90
46730;DHT22;32476;50.002;11.854;2023-07-20T05:27:07;14.50;99.90
46730;DHT22;32476;50.002;11.854;2023-07-20T05:29:33;14.60;99.90
46730;DHT22;32476;50.002;11.854;2023-07-20T05:32:00;14.60;99.90
46730;DHT22;32476;50.002;11.854;2023-07-20T05:34:26;14.70;99.90
46730;DHT22;32476;50.002;11.854;2023-07-20T05:36:52;14.70;99.90
46730;DHT22;32476;50.002;11.854;2023-07-20T05:39:20;14.80;99.90
46730;DHT22;32476;50.002;11.854;2023-07-20T05:41:46;14.80;99.90
46730;DHT22;32476;50.002;11.854;2023-07-20T05:44:12;14.80;99.90
46730;DHT22;32476;50.002;11.854;2023-07-20T05:46:40;14.80;99.90
46730;DHT22;32476;50.002;11.854;2023-07-20T05:49:06;14.90;99.90
46730;DHT22;32476;50.002;11.854;2023-07-20T05:51:32;14.90;99.90
46730;DHT22;32476;50.002;11.854;2023-07-20T05:53:59;14.80;99.90
46730;DHT22;32476;50.002;11.854;2023-07-20T05:56:25;14.80;99.90
46730;DHT22;32476;50.002;11.854;2023-07-20T05:58:51;15.00;99.90
46730;DHT22;32476;50.002;11.854;2023-07-20T06:01:18;14.90;99.90
46730;DHT22;32476;50.002;11.854;2023-07-20T06:03:44;14.90;99.90
46730;DHT22;32476;50.002;11.854;2023-07-20T06:06:10;14.90;99.90
46730;DHT22;32476;50.002;11.854;2023-07-20T06:08:39;15.10;99.90
46730;DHT22;32476;50.002;11.854;2023-07-20T06:11:05;15.10;99.90
46730;DHT22;32476;50.002;11.854;2023-07-20T06:13:30;15.30;99.90
46730;DHT22;32476;50.002;11.854;2023-07-20T06:15:58;15.40;99.90
46730;DHT22;32476;50.002;11.854;2023-07-20T06:18:24;15.50;99.90
46730;DHT22;32476;50.002;11.854;2023-07-20T06:20:53;15.40;99.90
46730;DHT22;32476;50.002;11.854;2023-07-20T06:23:20;15.60;99.90
46730;DHT22;32476;50.002;11.854;2023-07-20T06:25:46;15.50;99.90
46730;DHT22;32476;50.002;11.854;2023-07-20T06:28:13;15.40;99.90
46730;DHT22;32476;50.002;11.854;2023-07-20T06:30:41;15.40;99.90
46730;DHT22;32476;50.002;11.854;2023-07-20T06:33:07;15.40;99.90
46730;DHT22;32476;50.002;11.854;2023-07-20T06:35:34;15.40;99.90
46730;DHT22;32476;50.002;11.854;2023-07-20T06:38:02;15.40;99.90
46730;DHT22;32476;50.002;11.854;2023-07-20T06:40:30;15.50;99.90
46730;DHT22;32476;50.002;11.854;2023-07-20T06:42:56;15.50;99.90
46730;DHT22;32476;50.002;11.854;2023-07-20T06:45:24;15.50;99.90
46730;DHT22;32476;50.002;11.854;2023-07-20T06:47:50;15.40;99.90
46730;DHT22;32476;50.002;11.854;2023-07-20T06:50:16;15.60;99.90
46730;DHT22;32476;50.002;11.854;2023-07-20T06:52:43;15.40;99.90
46730;DHT22;32476;50.002;11.854;2023-07-20T06:55:09;15.30;99.90
46730;DHT22;32476;50.002;11.854;2023-07-20T06:57:36;15.30;99.90
46730;DHT22;32476;50.002;11.854;2023-07-20T07:00:04;15.20;99.90
46730;DHT22;32476;50.002;11.854;2023-07-20T07:02:31;15.20;99.90
46730;DHT22;32476;50.002;11.854;2023-07-20T07:04:57;15.30;99.90
46730;DHT22;32476;50.002;11.854;2023-07-20T07:07:25;15.60;99.90
46730;DHT22;32476;50.002;11.854;2023-07-20T07:09:51;15.90;99.90
46730;DHT22;32476;50.002;11.854;2023-07-20T07:12:17;16.10;99.90
46730;DHT22;32476;50.002;11.854;2023-07-20T07:14:44;16.10;99.90
46730;DHT22;32476;50.002;11.854;2023-07-20T07:17:10;16.40;99.90
46730;DHT22;32476;50.002;11.854;2023-07-20T07:19:36;16.50;99.90
46730;DHT22;32476;50.002;11.854;2023-07-20T07:22:04;16.70;99.90
46730;DHT22;32476;50.002;11.854;2023-07-20T07:24:30;16.80;99.90
46730;DHT22;32476;50.002;11.854;2023-07-20T07:27:00;16.80;99.90
46730;DHT22;32476;50.002;11.854;2023-07-20T07:29:28;16.80;99.90
46730;DHT22;32476;50.002;11.854;2023-07-20T07:31:54;16.90;99.90
46730;DHT22;32476;50.002;11.854;2023-07-20T07:34:20;17.30;99.90
46730;DHT22;32476;50.002;11.854;2023-07-20T07:36:47;17.00;99.90
46730;DHT22;32476;50.002;11.854;2023-07-20T07:39:13;17.20;99.90
46730;DHT22;32476;50.002;11.854;2023-07-20T07:41:39;17.10;99.90
46730;DHT22;32476;50.002;11.854;2023-07-20T07:44:07;17.20;99.90
46730;DHT22;32476;50.002;11.854;2023-07-20T07:46:33;17.40;99.90
46730;DHT22;32476;50.002;11.854;2023-07-20T07:48:58;17.50;99.90
46730;DHT22;32476;50.002;11.854;2023-07-20T07:51:26;17.70;99.90
46730;DHT22;32476;50.002;11.854;2023-07-20T07:53:54;18.10;99.90
46730;DHT22;32476;50.002;11.854;2023-07-20T07:56:20;18.00;99.90
46730;DHT22;32476;50.002;11.854;2023-07-20T07:58:51;18.00;99.90
46730;DHT22;32476;50.002;11.854;2023-07-20T08:01:17;17.90;99.90
46730;DHT22;32476;50.002;11.854;2023-07-20T08:03:45;17.70;99.90
46730;DHT22;32476;50.002;11.854;2023-07-20T08:06:14;17.80;99.90
46730;DHT22;32476;50.002;11.854;2023-07-20T08:08:40;18.30;99.90
46730;DHT22;32476;50.002;11.854;2023-07-20T08:11:08;18.50;99.90
46730;DHT22;32476;50.002;11.854;2023-07-20T08:13:36;18.30;99.90
46730;DHT22;32476;50.002;11.854;2023-07-20T08:16:02;18.70;99.90
46730;DHT22;32476;50.002;11.854;2023-07-20T08:18:29;18.00;99.90
46730;DHT22;32476;50.002;11.854;2023-07-20T08:20:56;18.40;99.90
46730;DHT22;32476;50.002;11.854;2023-07-20T08:23:22;18.70;99.90
46730;DHT22;32476;50.002;11.854;2023-07-20T08:25:48;18.90;99.90
46730;DHT22;32476;50.002;11.854;2023-07-20T08:28:16;19.30;99.90
46730;DHT22;32476;50.002;11.854;2023-07-20T08:30:44;18.90;99.90
46730;DHT22;32476;50.002;11.854;2023-07-20T08:33:14;18.60;99.90
46730;DHT22;32476;50.002;11.854;2023-07-20T08:35:43;18.60;99.90
46730;DHT22;32476;50.002;11.854;2023-07-20T08:38:09;19.20;99.90
46730;DHT22;32476;50.002;11.854;2023-07-20T08:40:40;19.20;99.90
46730;DHT22;32476;50.002;11.854;2023-07-20T08:43:11;19.70;99.90
46730;DHT22;32476;50.002;11.854;2023-07-20T08:45:39;19.90;99.90
46730;DHT22;32476;50.002;11.854;2023-07-20T08:48:06;19.80;99.90
46730;DHT22;32476;50.002;11.854;2023-07-20T08:50:35;19.30;99.90
46730;DHT22;32476;50.002;11.854;2023-07-20T08:53:02;18.50;99.90
46730;DHT22;32476;50.002;11.854;2023-07-20T08:55:29;18.40;99.90
46730;DHT22;32476;50.002;11.854;2023-07-20T08:58:00;18.60;99.90
46730;DHT22;32476;50.002;11.854;2023-07-20T09:00:27;19.50;99.90
46730;DHT22;32476;50.002;11.854;2023-07-20T09:02:55;19.70;99.90
46730;DHT22;32476;50.002;11.854;2023-07-20T09:05:24;20.20;99.90
46730;DHT22;32476;50.002;11.854;2023-07-20T09:07:52;20.20;99.90
46730;DHT22;32476;50.002;11.854;2023-07-20T09:10:23;20.20;99.90
46730;DHT22;32476;50.002;11.854;2023-07-20T09:12:51;20.00;99.90
46730;DHT22;32476;50.002;11.854;2023-07-20T09:15:19;18.90;99.90
46730;DHT22;32476;50.002;11.854;2023-07-20T09:17:46;18.80;99.90
46730;DHT22;32476;50.002;11.854;2023-07-20T09:20:19;18.60;99.90
46730;DHT22;32476;50.002;11.854;2023-07-20T09:22:46;19.40;99.90
46730;DHT22;32476;50.002;11.854;2023-07-20T09:25:16;19.70;99.90
46730;DHT22;32476;50.002;11.854;2023-07-20T09:27:48;19.70;99.90
46730;DHT22;32476;50.002;11.854;2023-07-20T09:30:15;19.80;99.90
46730;DHT22;32476;50.002;11.854;2023-07-20T09:32:49;19.70;99.90
46730;DHT22;32476;50.002;11.854;2023-07-20T09:35:19;19.30;99.90
46730;DHT22;32476;50.002;11.854;2023-07-20T09:38:05;19.20;99.90
46730;DHT22;32476;50.002;11.854;2023-07-20T09:40:37;18.80;99.90
46730;DHT22;32476;50.002;11.854;2023-07-20T09:43:08;18.80;99.90
46730;DHT22;32476;50.002;11.854;2023-07-20T09:45:40;18.80;99.90
46730;DHT22;32476;50.002;11.854;2023-07-20T09:48:08;19.50;99.90
46730;DHT22;32476;50.002;11.854;2023-07-20T09:50:41;19.00;99.90
46730;DHT22;32476;50.002;11.854;2023-07-20T09:53:12;19.00;99.90
46730;DHT22;32476;50.002;11.854;2023-07-20T09:55:41;20.00;99.90
46730;DHT22;32476;50.002;11.854;2023-07-20T09:58:09;20.60;99.90
46730;DHT22;32476;50.002;11.854;2023-07-20T10:00:37;19.90;98.80
46730;DHT22;32476;50.002;11.854;2023-07-20T10:03:06;19.50;99.90
46730;DHT22;32476;50.002;11.854;2023-07-20T10:05:37;19.00;99.90
46730;DHT22;32476;50.002;11.854;2023-07-20T10:08:11;18.90;99.90
46730;DHT22;32476;50.002;11.854;2023-07-20T10:10:41;18.80;99.90
46730;DHT22;32476;50.002;11.854;2023-07-20T10:13:17;19.50;99.90
46730;DHT22;32476;50.002;11.854;2023-07-20T10:15:47;20.20;99.90
46730;DHT22;32476;50.002;11.854;2023-07-20T10:18:31;20.20;99.40
46730;DHT22;32476;50.002;11.854;2023-07-20T10:21:03;20.80;99.20
46730;DHT22;32476;50.002;11.854;2023-07-20T10:23:34;21.10;98.20
46730;DHT22;32476;50.002;11.854;2023-07-20T10:26:01;21.20;97.40
46730;DHT22;32476;50.002;11.854;2023-07-20T10:28:28;21.20;96.80
46730;DHT22;32476;50.002;11.854;2023-07-20T10:30:56;20.70;96.50
46730;DHT22;32476;50.002;11.854;2023-07-20T10:33:22;20.20;95.50
46730;DHT22;32476;50.002;11.854;2023-07-20T10:36:01;19.70;96.20
46730;DHT22;32476;50.002;11.854;2023-07-20T10:41:28;19.40;97.60
46730;DHT22;32476;50.002;11.854;2023-07-20T10:44:04;19.60;97.50
46730;DHT22;32476;50.002;11.854;2023-07-20T10:46:41;19.90;98.50
46730;DHT22;32476;50.002;11.854;2023-07-20T10:49:11;20.80;97.20
46730;DHT22;32476;50.002;11.854;2023-07-20T10:51:43;20.70;95.70
46730;DHT22;32476;50.002;11.854;2023-07-20T10:56:44;21.70;95.70
46730;DHT22;32476;50.002;11.854;2023-07-20T10:59:37;21.40;93.20
46730;DHT22;32476;50.002;11.854;2023-07-20T11:02:07;22.80;93.80
46730;DHT22;32476;50.002;11.854;2023-07-20T11:07:06;21.30;91.00
46730;DHT22;32476;50.002;11.854;2023-07-20T11:09:37;20.10;92.90
46730;DHT22;32476;50.002;11.854;2023-07-20T11:12:13;20.30;94.10
46730;DHT22;32476;50.002;11.854;2023-07-20T11:14:53;20.20;93.70
46730;DHT22;32476;50.002;11.854;2023-07-20T11:17:29;19.70;94.60
46730;DHT22;32476;50.002;11.854;2023-07-20T11:19:57;20.00;95.00
46730;DHT22;32476;50.002;11.854;2023-07-20T11:22:25;19.70;95.20
46730;DHT22;32476;50.002;11.854;2023-07-20T11:24:55;19.70;95.60
46730;DHT22;32476;50.002;11.854;2023-07-20T11:27:22;19.70;95.00
46730;DHT22;32476;50.002;11.854;2023-07-20T11:29:49;19.70;93.90
46730;DHT22;32476;50.002;11.854;2023-07-20T11:32:22;19.70;94.40
46730;DHT22;32476;50.002;11.854;2023-07-20T11:34:51;20.20;93.20
46730;DHT22;32476;50.002;11.854;2023-07-20T11:37:17;20.70;92.80
46730;DHT22;32476;50.002;11.854;2023-07-20T11:39:44;20.30;92.90
46730;DHT22;32476;50.002;11.854;2023-07-20T11:42:12;20.90;92.90
46730;DHT22;32476;50.002;11.854;2023-07-20T11:44:38;20.30;91.60
46730;DHT22;32476;50.002;11.854;2023-07-20T11:47:08;20.00;92.00
46730;DHT22;32476;50.002;11.854;2023-07-20T11:49:40;20.50;93.30
46730;DHT22;32476;50.002;11.854;2023-07-20T11:52:13;20.90;92.50
46730;DHT22;32476;50.002;11.854;2023-07-20T11:54:43;20.60;92.50
46730;DHT22;32476;50.002;11.854;2023-07-20T11:57:16;20.40;91.60
46730;DHT22;32476;50.002;11.854;2023-07-20T11:59:57;20.10;92.70
46730;DHT22;32476;50.002;11.854;2023-07-20T12:02:27;20.10;92.30
46730;DHT22;32476;50.002;11.854;2023-07-20T12:04:55;20.50;93.10
46730;DHT22;32476;50.002;11.854;2023-07-20T12:07:22;20.00;92.80
46730;DHT22;32476;50.002;11.854;2023-07-20T12:10:11;20.60;92.70
46730;DHT22;32476;50.002;11.854;2023-07-20T12:12:43;21.40;92.20
46730;DHT22;32476;50.002;11.854;2023-07-20T12:15:17;21.20;91.80
46730;DHT22;32476;50.002;11.854;2023-07-20T12:17:52;20.50;92.80
46730;DHT22;32476;50.002;11.854;2023-07-20T12:23:12;20.10;92.80
46730;DHT22;32476;50.002;11.854;2023-07-20T12:25:44;20.10;93.50
46730;DHT22;32476;50.002;11.854;2023-07-20T12:28:17;20.00;93.00
46730;DHT22;32476;50.002;11.854;2023-07-20T12:30:45;20.10;93.20
46730;DHT22;32476;50.002;11.854;2023-07-20T12:33:13;19.90;93.60
46730;DHT22;32476;50.002;11.854;2023-07-20T12:35:43;20.10;93.50
46730;DHT22;32476;50.002;11.854;2023-07-20T12:38:09;20.20;93.60
46730;DHT22;32476;50.002;11.854;2023-07-20T12:40:36;19.80;93.10
46730;DHT22;32476;50.002;11.854;2023-07-20T12:43:02;19.90;93.30
46730;DHT22;32476;50.002;11.854;2023-07-20T12:45:30;19.80;94.60
46730;DHT22;32476;50.002;11.854;2023-07-20T12:47:57;19.80;93.90
46730;DHT22;32476;50.002;11.854;2023-07-20T12:50:24;19.70;94.20
46730;DHT22;32476;50.002;11.854;2023-07-20T12:52:50;19.80;95.10
46730;DHT22;32476;50.002;11.854;2023-07-20T12:55:17;19.90;95.10
46730;DHT22;32476;50.002;11.854;2023-07-20T12:57:45;19.60;94.10
46730;DHT22;32476;50.002;11.854;2023-07-20T13:00:13;19.70;94.40
46730;DHT22;32476;50.002;11.854;2023-07-20T13:02:41;19.80;94.30
46730;DHT22;32476;50.002;11.854;2023-07-20T13:05:09;20.10;94.60
46730;DHT22;32476;50.002;11.854;2023-07-20T13:07:40;20.00;94.60
46730;DHT22;32476;50.002;11.854;2023-07-20T13:10:09;20.00;94.10
46730;DHT22;32476;50.002;11.854;2023-07-20T13:12:37;20.10;94.80
46730;DHT22;32476;50.002;11.854;2023-07-20T13:15:05;20.40;93.60
46730;DHT22;32476;50.002;11.854;2023-07-20T13:17:38;20.00;93.10
46730;DHT22;32476;50.002;11.854;2023-07-20T13:20:06;20.10;93.30
46730;DHT22;32476;50.002;11.854;2023-07-20T13:22:38;20.10;94.20
46730;DHT22;32476;50.002;11.854;2023-07-20T13:25:04;20.00;93.80
46730;DHT22;32476;50.002;11.854;2023-07-20T13:27:32;20.40;93.70
46730;DHT22;32476;50.002;11.854;2023-07-20T13:30:00;20.60;93.80
46730;DHT22;32476;50.002;11.854;2023-07-20T13:32:33;20.90;93.60
46730;DHT22;32476;50.002;11.854;2023-07-20T13:35:01;21.80;91.90
46730;DHT22;32476;50.002;11.854;2023-07-20T13:37:26;22.50;91.60
46730;DHT22;32476;50.002;11.854;2023-07-20T13:39:54;22.70;89.00
46730;DHT22;32476;50.002;11.854;2023-07-20T13:42:21;22.10;89.50
46730;DHT22;32476;50.002;11.854;2023-07-20T13:44:48;21.80;87.90
46730;DHT22;32476;50.002;11.854;2023-07-20T13:47:14;21.40;90.10
46730;DHT22;32476;50.002;11.854;2023-07-20T13:49:42;21.10;91.40
46730;DHT22;32476;50.002;11.854;2023-07-20T13:52:09;21.10;92.10
46730;DHT22;32476;50.002;11.854;2023-07-20T13:54:35;20.60;92.00
46730;DHT22;32476;50.002;11.854;2023-07-20T13:57:02;20.40;91.60
46730;DHT22;32476;50.002;11.854;2023-07-20T13:59:29;20.20;91.40
46730;DHT22;32476;50.002;11.854;2023-07-20T14:01:55;20.30;92.40
46730;DHT22;32476;50.002;11.854;2023-07-20T14:04:22;20.20;92.10
46730;DHT22;32476;50.002;11.854;2023-07-20T14:06:48;20.30;92.60
46730;DHT22;32476;50.002;11.854;2023-07-20T14:09:14;20.20;91.70
46730;DHT22;32476;50.002;11.854;2023-07-20T14:11:41;20.10;92.30
46730;DHT22;32476;50.002;11.854;2023-07-20T14:14:07;20.20;92.10
46730;DHT22;32476;50.002;11.854;2023-07-20T14:16:33;20.30;92.80
46730;DHT22;32476;50.002;11.854;2023-07-20T14:19:00;20.40;91.70
46730;DHT22;32476;50.002;11.854;2023-07-20T14:21:26;20.10;92.20
46730;DHT22;32476;50.002;11.854;2023-07-20T14:23:54;20.20;92.30
46730;DHT22;32476;50.002;11.854;2023-07-20T14:26:21;20.00;92.90
46730;DHT22;32476;50.002;11.854;2023-07-20T14:28:47;19.90;93.00
46730;DHT22;32476;50.002;11.854;2023-07-20T14:31:13;19.90;93.10
46730;DHT22;32476;50.002;11.854;2023-07-20T14:33:41;20.10;93.40
46730;DHT22;32476;50.002;11.854;2023-07-20T14:36:07;20.00;92.20
46730;DHT22;32476;50.002;11.854;2023-07-20T14:38:34;19.70;92.30
46730;DHT22;32476;50.002;11.854;2023-07-20T14:41:04;19.90;93.10
46730;DHT22;32476;50.002;11.854;2023-07-20T14:43:31;19.70;92.30
46730;DHT22;32476;50.002;11.854;2023-07-20T14:45:57;19.70;93.00
46730;DHT22;32476;50.002;11.854;2023-07-20T14:48:25;19.70;93.00
46730;DHT22;32476;50.002;11.854;2023-07-20T14:50:50;19.70;92.80
46730;DHT22;32476;50.002;11.854;2023-07-20T14:53:16;19.80;93.10
46730;DHT22;32476;50.002;11.854;2023-07-20T14:55:44;20.10;94.00
46730;DHT22;32476;50.002;11.854;2023-07-20T14:58:10;20.20;94.00
46730;DHT22;32476;50.002;11.854;2023-07-20T15:00:37;20.20;91.30
46730;DHT22;32476;50.002;11.854;2023-07-20T15:03:04;19.90;93.00
46730;DHT22;32476;50.002;11.854;2023-07-20T15:05:31;19.90;92.30
46730;DHT22;32476;50.002;11.854;2023-07-20T15:07:57;19.90;93.40
46730;DHT22;32476;50.002;11.854;2023-07-20T15:10:24;19.80;92.60
46730;DHT22;32476;50.002;11.854;2023-07-20T15:12:50;19.90;92.40
46730;DHT22;32476;50.002;11.854;2023-07-20T15:15:16;19.90;92.30
46730;DHT22;32476;50.002;11.854;2023-07-20T15:17:44;20.00;91.80
46730;DHT22;32476;50.002;11.854;2023-07-20T15:20:12;20.20;92.60
46730;DHT22;32476;50.002;11.854;2023-07-20T15:22:39;20.40;91.60
46730;DHT22;32476;50.002;11.854;2023-07-20T15:25:08;20.70;90.80
46730;DHT22;32476;50.002;11.854;2023-07-20T15:27:36;21.20;91.60
46730;DHT22;32476;50.002;11.854;2023-07-20T15:30:02;21.30;89.70
46730;DHT22;32476;50.002;11.854;2023-07-20T15:32:29;20.80;89.90
46730;DHT22;32476;50.002;11.854;2023-07-20T15:34:55;20.60;90.70
46730;DHT22;32476;50.002;11.854;2023-07-20T15:37:21;20.80;92.40
46730;DHT22;32476;50.002;11.854;2023-07-20T15:39:49;20.60;92.80
46730;DHT22;32476;50.002;11.854;2023-07-20T15:42:16;20.60;93.00
46730;DHT22;32476;50.002;11.854;2023-07-20T15:44:42;20.80;94.20